createdAt,value
2019-03-20T00:02:12.269Z,90.70
2019-03-20T00:04:49.803Z,90.60
2019-03-20T00:07:14.435Z,90.50
2019-03-20T00:09:44.761Z,90.60
2019-03-20T00:12:15.286Z,90.60
2019-03-20T00:14:45.607Z,90.70
2019-03-20T00:17:15.934Z,90.80
2019-03-20T00:19:46.259Z,90.90
2019-03-20T00:22:16.580Z,91.00
2019-03-20T00:24:46.904Z,90.60
2019-03-20T00:27:17.150Z,90.80
2019-03-20T00:29:47.448Z,91.10
2019-03-20T00:32:17.674Z,91.30
2019-03-20T00:34:47.994Z,91.00
2019-03-20T00:37:18.297Z,91.10
2019-03-20T00:39:48.498Z,91.30
2019-03-20T00:42:19.581Z,91.30
2019-03-20T00:44:49.908Z,91.50
2019-03-20T00:47:20.740Z,91.40
2019-03-20T00:49:51.108Z,91.50
2019-03-20T00:52:21.492Z,91.60
2019-03-20T00:54:51.632Z,92.10
2019-03-20T00:57:23.062Z,91.70
2019-03-20T00:59:53.386Z,91.80
2019-03-20T01:02:23.710Z,91.80
2019-03-20T01:04:54.032Z,91.90
2019-03-20T01:07:24.252Z,91.90
2019-03-20T01:09:54.498Z,91.90
2019-03-20T01:12:24.907Z,92.20
2019-03-20T01:14:55.228Z,92.30
2019-03-20T01:17:25.447Z,92.50
2019-03-20T01:19:55.770Z,92.50
2019-03-20T01:22:26.100Z,92.80
2019-03-20T01:24:56.419Z,92.60
2019-03-20T01:27:26.660Z,93.00
2019-03-20T01:29:56.860Z,93.10
2019-03-20T01:32:27.184Z,93.20
2019-03-20T01:34:57.508Z,93.20
2019-03-20T01:37:27.834Z,92.90
2019-03-20T01:39:58.160Z,93.70
2019-03-20T01:42:28.480Z,93.60
2019-03-20T01:44:58.819Z,93.30
2019-03-20T01:47:29.136Z,93.60
2019-03-20T01:49:59.455Z,93.60
2019-03-20T01:52:30.016Z,94.00
2019-03-20T01:55:00.449Z,93.80
2019-03-20T01:57:30.835Z,93.60
2019-03-20T02:00:01.055Z,94.10
2019-03-20T02:02:31.284Z,94.10
2019-03-20T02:05:01.607Z,93.90
2019-03-20T02:07:31.923Z,94.00
2019-03-20T02:10:04.686Z,94.00
2019-03-20T02:12:34.980Z,94.20
2019-03-20T02:15:15.099Z,94.00
2019-03-20T02:17:47.009Z,94.20
2019-03-20T02:20:20.059Z,94.20
2019-03-20T02:22:54.254Z,94.00
2019-03-20T02:25:24.323Z,94.10
2019-03-20T02:27:54.533Z,94.10
2019-03-20T02:30:24.595Z,94.40
2019-03-20T02:32:54.774Z,94.70
2019-03-20T02:35:25.151Z,94.50
2019-03-20T02:37:55.473Z,94.90
2019-03-20T02:40:25.830Z,94.60
2019-03-20T02:42:56.953Z,94.70
2019-03-20T02:45:27.266Z,94.70
2019-03-20T02:47:57.590Z,94.70
2019-03-20T02:50:27.913Z,94.50
2019-03-20T02:52:58.243Z,94.60
2019-03-20T02:55:28.765Z,94.70
2019-03-20T02:57:59.091Z,94.80
2019-03-20T03:00:29.412Z,94.60
2019-03-20T03:02:59.738Z,94.60
2019-03-20T03:05:30.063Z,94.80
2019-03-20T03:08:00.388Z,94.70
2019-03-20T03:10:30.922Z,94.70
2019-03-20T03:13:01.316Z,94.70
2019-03-20T03:15:31.561Z,94.80
2019-03-20T03:18:01.886Z,95.30
2019-03-20T03:20:32.213Z,94.90
2019-03-20T03:23:05.603Z,95.10
2019-03-20T03:25:36.471Z,95.00
2019-03-20T03:28:07.104Z,95.00
2019-03-20T03:30:37.602Z,95.30
2019-03-20T03:33:07.946Z,95.20
2019-03-20T03:35:38.250Z,95.40
2019-03-20T03:38:08.572Z,95.30
2019-03-20T03:40:40.335Z,95.30
2019-03-20T03:43:10.653Z,95.50
2019-03-20T03:45:40.898Z,95.60
2019-03-20T03:48:11.098Z,95.30
2019-03-20T03:50:41.422Z,95.30
2019-03-20T03:53:11.767Z,95.60
2019-03-20T03:55:42.074Z,95.50
2019-03-20T03:58:12.296Z,95.50
2019-03-20T04:00:42.614Z,95.70
2019-03-20T04:03:12.943Z,95.80
2019-03-20T04:05:43.264Z,95.80
2019-03-20T04:08:13.794Z,95.80
2019-03-20T04:10:44.113Z,95.80
2019-03-20T04:13:14.642Z,96.10
2019-03-20T04:15:45.277Z,95.90
2019-03-20T04:18:17.037Z,96.10
2019-03-20T04:20:47.263Z,96.10
2019-03-20T04:23:17.590Z,96.20
2019-03-20T04:25:47.902Z,96.40
2019-03-20T04:28:18.123Z,96.30
2019-03-20T04:30:48.445Z,96.40
2019-03-20T04:33:18.788Z,96.70
2019-03-20T04:35:48.992Z,96.80
2019-03-20T04:38:19.335Z,97.00
2019-03-20T04:40:49.638Z,97.00
2019-03-20T04:43:19.761Z,96.90
2019-03-20T04:45:50.716Z,97.00
2019-03-20T04:48:21.029Z,97.00
2019-03-20T04:50:51.346Z,97.40
2019-03-20T04:53:21.685Z,97.30
2019-03-20T04:55:52.008Z,97.30
2019-03-20T04:58:22.214Z,97.70
2019-03-20T05:00:52.439Z,97.70
2019-03-20T05:03:22.764Z,97.90
2019-03-20T05:05:53.088Z,98.00
2019-03-20T05:08:23.408Z,98.00
2019-03-20T05:10:53.731Z,98.20
2019-03-20T05:13:24.054Z,98.90
2019-03-20T05:15:54.590Z,99.50
2019-03-20T05:18:24.911Z,99.60
2019-03-20T05:20:55.231Z,99.40
2019-03-20T05:23:25.555Z,99.50
2019-03-20T05:25:55.884Z,99.40
2019-03-20T05:28:26.204Z,99.50
2019-03-20T05:30:56.530Z,99.40
2019-03-20T05:33:26.755Z,99.40
2019-03-20T05:35:56.973Z,99.50
2019-03-20T05:38:27.401Z,99.40
2019-03-20T05:40:57.718Z,99.50
2019-03-20T05:43:28.055Z,99.50
2019-03-20T05:46:00.367Z,99.70
2019-03-20T05:48:30.139Z,99.50
2019-03-20T05:51:00.369Z,99.50
2019-03-20T05:53:30.773Z,99.90
2019-03-20T05:56:01.017Z,99.90
2019-03-20T05:58:31.422Z,99.90
2019-03-20T06:01:01.950Z,99.90
2019-03-20T06:03:32.274Z,99.90
2019-03-20T06:06:02.802Z,99.90
2019-03-20T06:08:33.128Z,99.90
2019-03-20T06:11:03.451Z,99.90
2019-03-20T06:13:33.785Z,99.90
2019-03-20T06:16:04.098Z,99.90
2019-03-20T06:18:34.421Z,99.90
2019-03-20T06:21:04.563Z,99.90
2019-03-20T06:23:34.968Z,99.90
2019-03-20T06:26:05.423Z,99.90
2019-03-20T06:28:35.630Z,99.90
2019-03-20T06:31:05.946Z,99.90
2019-03-20T06:33:36.263Z,99.90
2019-03-20T06:36:06.703Z,99.90
2019-03-20T06:38:36.913Z,99.90
2019-03-20T06:41:07.241Z,99.90
2019-03-20T06:43:37.768Z,99.90
2019-03-20T06:46:08.090Z,99.90
2019-03-20T06:48:39.359Z,99.90
2019-03-20T06:51:09.558Z,99.90
2019-03-20T06:53:39.913Z,99.90
2019-03-20T06:56:10.411Z,99.90
2019-03-20T06:58:40.633Z,99.90
2019-03-20T07:01:16.434Z,99.90
2019-03-20T07:03:52.751Z,99.90
2019-03-20T07:06:43.859Z,99.90
2019-03-20T07:09:25.856Z,99.90
2019-03-20T07:11:56.182Z,99.90
2019-03-20T07:14:26.505Z,99.90
2019-03-20T07:16:58.058Z,99.90
2019-03-20T07:19:28.242Z,99.90
2019-03-20T07:21:58.604Z,99.90
2019-03-20T07:24:29.131Z,99.90
2019-03-20T07:26:59.458Z,99.90
2019-03-20T07:29:29.779Z,99.90
2019-03-20T07:32:00.472Z,99.90
2019-03-20T07:34:31.562Z,99.90
2019-03-20T07:37:09.667Z,99.90
2019-03-20T07:39:44.703Z,99.90
2019-03-20T07:42:15.227Z,99.90
2019-03-20T07:44:47.108Z,99.90
2019-03-20T07:47:17.628Z,99.90
2019-03-20T07:49:47.864Z,99.90
2019-03-20T07:52:18.265Z,99.90
2019-03-20T07:54:48.585Z,99.90
2019-03-20T07:57:18.911Z,99.90
2019-03-20T07:59:49.230Z,99.90
2019-03-20T08:02:19.455Z,99.90
2019-03-20T08:04:49.983Z,99.90
2019-03-20T08:07:30.626Z,99.90
2019-03-20T08:10:01.692Z,99.90
2019-03-20T08:12:33.699Z,99.90
2019-03-20T08:15:05.583Z,99.90
2019-03-20T08:17:36.040Z,99.90
2019-03-20T08:20:09.439Z,99.90
2019-03-20T08:22:39.741Z,99.90
2019-03-20T08:25:12.483Z,99.90
2019-03-20T08:27:42.660Z,99.90
2019-03-20T08:30:17.103Z,99.90
2019-03-20T08:32:48.709Z,99.90
2019-03-20T08:35:29.609Z,99.90
2019-03-20T08:38:00.035Z,99.90
2019-03-20T08:40:30.395Z,99.90
2019-03-20T08:43:00.886Z,99.90
2019-03-20T08:45:31.221Z,99.90
2019-03-20T08:48:01.543Z,99.90
2019-03-20T08:50:32.215Z,99.90
2019-03-20T08:53:06.573Z,99.90
2019-03-20T08:55:37.014Z,99.90
2019-03-20T08:58:17.791Z,99.90
2019-03-20T09:00:56.100Z,99.90
2019-03-20T09:03:26.314Z,99.90
2019-03-20T09:05:56.639Z,99.90
2019-03-20T09:08:29.824Z,99.90
2019-03-20T09:10:59.127Z,99.90
2019-03-20T09:13:29.258Z,99.90
2019-03-20T09:15:59.475Z,99.90
2019-03-20T09:18:29.897Z,99.90
2019-03-20T09:21:00.122Z,99.90
2019-03-20T09:23:30.439Z,99.90
2019-03-20T09:26:00.771Z,99.90
2019-03-20T09:28:31.089Z,99.90
2019-03-20T09:31:01.619Z,99.90
2019-03-20T09:33:31.800Z,99.90
2019-03-20T09:36:02.068Z,99.90
2019-03-20T09:38:42.707Z,99.90
2019-03-20T09:41:04.551Z,99.90
2019-03-20T09:43:34.879Z,99.90
2019-03-20T09:46:05.205Z,99.90
2019-03-20T09:48:35.528Z,99.90
2019-03-20T09:51:06.056Z,99.90
2019-03-20T09:53:36.370Z,99.90
2019-03-20T09:56:07.214Z,99.90
2019-03-20T09:58:37.542Z,99.90
2019-03-20T10:01:07.862Z,99.90
2019-03-20T10:03:38.596Z,99.90
2019-03-20T10:06:09.025Z,99.90
2019-03-20T10:08:39.344Z,99.90
2019-03-20T10:11:09.565Z,99.90
2019-03-20T10:13:43.012Z,99.90
2019-03-20T10:16:16.430Z,99.90
2019-03-20T10:18:47.298Z,99.90
2019-03-20T10:21:17.620Z,99.90
2019-03-20T10:23:48.046Z,99.90
2019-03-20T10:26:18.371Z,99.90
2019-03-20T10:28:48.900Z,99.90
2019-03-20T10:31:19.222Z,99.90
2019-03-20T10:33:49.728Z,99.90
2019-03-20T10:36:19.916Z,99.90
2019-03-20T10:38:50.364Z,99.90
2019-03-20T10:41:20.640Z,99.90
2019-03-20T10:43:52.315Z,99.90
2019-03-20T10:46:22.806Z,99.90
2019-03-20T10:48:53.132Z,99.90
2019-03-20T10:51:23.660Z,99.90
2019-03-20T10:53:53.991Z,99.90
2019-03-20T10:56:24.516Z,99.90
2019-03-20T10:58:54.747Z,99.90
2019-03-20T11:01:25.066Z,99.90
2019-03-20T11:03:55.384Z,99.90
2019-03-20T11:06:25.707Z,99.90
2019-03-20T11:08:55.927Z,99.90
2019-03-20T11:11:27.251Z,99.90
2019-03-20T11:13:58.031Z,99.90
2019-03-20T11:16:31.205Z,99.90
2019-03-20T11:19:01.730Z,99.90
2019-03-20T11:21:31.949Z,99.90
2019-03-20T11:24:02.375Z,99.90
2019-03-20T11:26:32.704Z,99.90
2019-03-20T11:29:03.230Z,99.90
2019-03-20T11:31:34.417Z,99.90
2019-03-20T11:34:04.901Z,99.90
2019-03-20T11:36:35.228Z,99.90
2019-03-20T11:39:08.641Z,99.90
2019-03-20T11:41:38.946Z,99.90
2019-03-20T11:44:09.091Z,99.90
2019-03-20T11:46:39.598Z,99.90
2019-03-20T11:49:09.918Z,99.90
2019-03-20T11:51:40.241Z,99.90
2019-03-20T11:54:10.592Z,99.90
2019-03-20T11:56:41.094Z,99.90
2019-03-20T11:59:11.421Z,99.90
2019-03-20T12:01:42.153Z,99.90
2019-03-20T12:04:12.477Z,99.90
2019-03-20T12:06:42.812Z,99.90
2019-03-20T12:09:13.330Z,99.90
2019-03-20T12:11:46.096Z,99.90
2019-03-20T12:14:15.512Z,99.90
2019-03-20T12:16:48.934Z,99.90
2019-03-20T12:19:19.230Z,99.90
2019-03-20T12:21:49.572Z,99.90
2019-03-20T12:24:19.884Z,99.90
2019-03-20T12:26:51.390Z,99.90
2019-03-20T12:29:21.579Z,99.90
2019-03-20T12:31:52.193Z,99.90
2019-03-20T12:34:22.638Z,99.90
2019-03-20T12:36:53.016Z,99.90
2019-03-20T12:39:23.257Z,99.90
2019-03-20T12:41:53.580Z,99.90
2019-03-20T12:44:23.907Z,99.90
2019-03-20T12:46:54.230Z,99.90
2019-03-20T12:49:30.151Z,99.90
2019-03-20T12:52:06.970Z,99.90
2019-03-20T12:54:37.397Z,99.90
2019-03-20T12:57:07.925Z,99.90
2019-03-20T12:59:40.295Z,99.90
2019-03-20T13:02:13.737Z,99.90
2019-03-20T13:04:44.221Z,99.90
2019-03-20T13:07:17.175Z,99.90
2019-03-20T13:09:47.364Z,99.90
2019-03-20T13:12:17.494Z,99.90
2019-03-20T13:14:47.580Z,99.90
2019-03-20T13:17:17.883Z,99.90
2019-03-20T13:19:48.205Z,99.90
2019-03-20T13:22:18.555Z,99.90
2019-03-20T13:24:48.955Z,99.90
2019-03-20T13:27:19.427Z,99.90
2019-03-20T13:29:49.708Z,99.90
2019-03-20T13:32:20.566Z,99.90
2019-03-20T13:34:50.973Z,99.90
2019-03-20T13:37:21.296Z,99.90
2019-03-20T13:39:51.819Z,99.90
2019-03-20T13:42:22.041Z,99.90
2019-03-20T13:44:52.429Z,99.90
2019-03-20T13:47:22.689Z,99.90
2019-03-20T13:49:52.842Z,99.90
2019-03-20T13:52:23.060Z,99.90
2019-03-20T13:54:53.277Z,99.90
2019-03-20T13:57:23.783Z,99.90
2019-03-20T13:59:54.130Z,99.90
2019-03-20T14:02:24.539Z,99.90
2019-03-20T14:04:54.861Z,99.90
2019-03-20T14:07:25.182Z,99.90
2019-03-20T14:09:55.508Z,99.90
2019-03-20T14:12:25.955Z,99.90
2019-03-20T14:14:56.117Z,99.90
2019-03-20T14:17:26.202Z,99.90
2019-03-20T14:19:56.455Z,99.90
2019-03-20T14:22:26.713Z,99.90
2019-03-20T14:24:57.252Z,99.90
2019-03-20T14:27:27.470Z,99.90
2019-03-20T14:29:57.889Z,99.90
2019-03-20T14:32:28.220Z,99.90
2019-03-20T14:34:58.542Z,99.90
2019-03-20T14:37:28.863Z,99.90
2019-03-20T14:40:00.368Z,99.90
2019-03-20T14:42:30.767Z,99.90
2019-03-20T14:45:00.898Z,99.90
2019-03-20T14:47:41.625Z,99.90
2019-03-20T14:50:03.069Z,99.90
2019-03-20T14:52:33.469Z,99.90
2019-03-20T14:55:04.413Z,99.90
2019-03-20T14:57:34.833Z,99.90
2019-03-20T15:00:08.359Z,99.90
2019-03-20T15:02:38.552Z,99.90
2019-03-20T15:05:09.394Z,99.90
2019-03-20T15:07:39.919Z,99.90
2019-03-20T15:10:15.772Z,99.90
2019-03-20T15:12:46.301Z,99.90
2019-03-20T15:15:38.640Z,99.90
2019-03-20T15:18:08.965Z,99.90
2019-03-20T15:20:39.289Z,99.90
2019-03-20T15:23:09.616Z,99.90
2019-03-20T15:25:40.143Z,99.90
2019-03-20T15:28:10.682Z,99.90
2019-03-20T15:30:42.623Z,99.90
2019-03-20T15:33:13.920Z,99.90
2019-03-20T15:35:45.360Z,99.90
2019-03-20T15:38:15.755Z,99.90
2019-03-20T15:40:55.706Z,99.90
2019-03-20T15:43:20.875Z,99.90
2019-03-20T15:45:51.444Z,99.90
2019-03-20T15:48:23.632Z,99.90
2019-03-20T15:50:57.971Z,99.90
2019-03-20T15:53:28.458Z,99.90
2019-03-20T15:55:58.882Z,99.90
2019-03-20T15:58:29.408Z,99.90
2019-03-20T16:00:59.734Z,99.90
2019-03-20T16:03:32.922Z,99.90
2019-03-20T16:06:03.244Z,99.90
2019-03-20T16:08:34.942Z,99.90
2019-03-20T16:11:06.889Z,99.90
2019-03-20T16:13:37.327Z,99.90
2019-03-20T16:16:07.616Z,99.90
2019-03-20T16:18:37.938Z,99.90
2019-03-20T16:21:11.053Z,99.90
2019-03-20T16:23:41.864Z,99.90
2019-03-20T16:26:16.622Z,99.90
2019-03-20T16:29:07.021Z,99.90
2019-03-20T16:31:43.231Z,99.90
2019-03-20T16:34:18.349Z,99.90
2019-03-20T16:36:58.521Z,99.90
2019-03-20T16:39:36.859Z,99.90
2019-03-20T16:42:17.122Z,99.90
2019-03-20T16:44:48.075Z,99.90
2019-03-20T16:47:18.574Z,99.90
2019-03-20T16:49:48.753Z,99.90
2019-03-20T16:52:19.627Z,99.90
2019-03-20T16:54:50.161Z,99.90
2019-03-20T16:57:21.870Z,99.90
2019-03-20T16:59:52.447Z,99.90
2019-03-20T17:02:22.775Z,99.90
2019-03-20T17:04:53.095Z,99.90
2019-03-20T17:07:23.319Z,99.90
2019-03-20T17:09:53.643Z,99.90
2019-03-20T17:12:24.276Z,99.90
2019-03-20T17:14:54.923Z,99.90
2019-03-20T17:17:25.581Z,99.90
2019-03-20T17:19:59.310Z,99.90
2019-03-20T17:22:30.383Z,99.90
2019-03-20T17:25:00.625Z,99.90
2019-03-20T17:27:42.813Z,99.90
2019-03-20T17:30:36.896Z,99.90
2019-03-20T17:33:09.475Z,99.90
2019-03-20T17:35:50.035Z,99.90
2019-03-20T17:38:35.367Z,99.90
2019-03-20T17:41:15.249Z,99.90
2019-03-20T17:43:45.788Z,99.90
2019-03-20T17:46:17.428Z,99.90
2019-03-20T17:48:48.006Z,99.90
2019-03-20T17:51:18.491Z,99.90
2019-03-20T17:53:48.999Z,99.90
2019-03-20T17:56:19.601Z,99.90
2019-03-20T17:58:50.019Z,99.90
2019-03-20T18:01:20.431Z,99.90
2019-03-20T18:03:50.923Z,99.90
2019-03-20T18:06:21.434Z,99.90
2019-03-20T18:08:52.470Z,99.90
2019-03-20T18:11:23.034Z,99.90
2019-03-20T18:13:53.763Z,99.90
2019-03-20T18:16:27.522Z,99.90
2019-03-20T18:18:58.504Z,99.90
2019-03-20T18:21:30.351Z,99.90
2019-03-20T18:24:01.893Z,99.90
2019-03-20T18:26:32.328Z,99.90
2019-03-20T18:29:06.371Z,99.90
2019-03-20T18:31:45.907Z,99.90
2019-03-20T18:34:25.095Z,99.90
2019-03-20T18:37:04.204Z,99.90
2019-03-20T18:39:44.527Z,99.90
2019-03-20T18:45:53.762Z,99.90
2019-03-20T18:48:29.726Z,99.90
2019-03-20T18:51:13.799Z,99.90
2019-03-20T18:53:47.704Z,99.90
2019-03-20T18:56:19.504Z,99.90
2019-03-20T18:58:51.886Z,99.90
2019-03-20T19:01:25.422Z,99.90
2019-03-20T19:03:56.211Z,99.90
2019-03-20T19:06:31.605Z,99.90
2019-03-20T19:09:06.138Z,99.90
2019-03-20T19:11:38.401Z,99.90
2019-03-20T19:14:09.285Z,99.90
2019-03-20T19:16:41.185Z,99.90
2019-03-20T19:19:13.082Z,99.90
2019-03-20T19:21:43.421Z,99.90
2019-03-20T19:24:14.061Z,99.90
2019-03-20T19:26:44.530Z,99.90
2019-03-20T19:29:15.799Z,99.90
2019-03-20T19:31:46.026Z,99.90
2019-03-20T19:34:16.287Z,99.90
2019-03-20T19:36:46.742Z,99.90
2019-03-20T19:39:17.489Z,99.90
2019-03-20T19:41:48.357Z,99.90
2019-03-20T19:44:20.085Z,99.90
2019-03-20T19:46:50.757Z,99.90
2019-03-20T19:49:21.185Z,99.90
2019-03-20T19:51:51.807Z,99.90
2019-03-20T19:54:22.084Z,99.90
2019-03-20T19:56:52.406Z,99.90
2019-03-20T19:59:22.945Z,99.90
2019-03-20T20:01:53.188Z,99.90
2019-03-20T20:04:23.490Z,99.90
2019-03-20T20:06:54.011Z,99.90
2019-03-20T20:09:24.324Z,99.90
2019-03-20T20:11:55.791Z,99.90
2019-03-20T20:14:29.706Z,99.90
2019-03-20T20:17:03.958Z,99.90
2019-03-20T20:19:34.336Z,99.90
2019-03-20T20:22:04.668Z,99.90
2019-03-20T20:24:35.175Z,99.90
2019-03-20T20:27:05.715Z,99.90
2019-03-20T20:29:36.045Z,99.90
2019-03-20T20:32:06.364Z,99.90
2019-03-20T20:34:36.705Z,99.90
2019-03-20T20:37:12.423Z,99.90
2019-03-20T20:39:43.220Z,99.90
2019-03-20T20:42:15.029Z,99.90
2019-03-20T20:44:45.580Z,99.90
2019-03-20T20:47:16.071Z,99.90
2019-03-20T20:49:47.555Z,99.90
2019-03-20T20:52:19.908Z,99.90
2019-03-20T20:54:51.358Z,99.90
2019-03-20T20:57:22.441Z,99.90
2019-03-20T20:59:53.815Z,99.90
2019-03-20T21:02:24.179Z,99.90
2019-03-20T21:04:54.470Z,99.90
2019-03-20T21:07:26.612Z,99.90
2019-03-20T21:09:57.404Z,99.90
2019-03-20T21:12:28.136Z,99.90
2019-03-20T21:14:58.869Z,99.90
2019-03-20T21:17:32.090Z,99.90
2019-03-20T21:20:02.930Z,99.90
2019-03-20T21:22:36.214Z,99.90
2019-03-20T21:25:07.041Z,99.90
2019-03-20T21:28:05.918Z,99.90
2019-03-20T21:30:41.875Z,99.90
2019-03-20T21:33:33.090Z,99.90
2019-03-20T21:36:21.354Z,99.90
2019-03-20T21:38:51.695Z,99.90
2019-03-20T21:41:30.792Z,99.90
2019-03-20T21:44:15.448Z,99.90
2019-03-20T21:46:48.692Z,99.90
2019-03-20T21:49:19.120Z,99.90
2019-03-20T21:51:49.420Z,99.90
2019-03-20T21:54:39.071Z,99.90
2019-03-20T21:57:20.990Z,99.90
2019-03-20T22:00:06.544Z,99.90
2019-03-20T22:02:46.393Z,99.90
2019-03-20T22:05:23.367Z,99.90
2019-03-20T22:07:54.004Z,99.90
2019-03-20T22:10:30.268Z,99.90
2019-03-20T22:13:17.817Z,99.90
2019-03-20T22:16:01.017Z,99.90
2019-03-20T22:19:03.089Z,99.90
2019-03-20T22:22:00.444Z,99.90
2019-03-20T22:24:48.591Z,99.90
2019-03-20T22:27:30.590Z,99.90
2019-03-20T22:30:02.210Z,99.90
2019-03-20T22:32:51.919Z,99.90
2019-03-20T22:35:28.181Z,99.90
2019-03-20T22:38:00.108Z,99.90
2019-03-20T22:41:00.471Z,99.90
2019-03-20T22:43:33.663Z,99.90
2019-03-20T22:46:40.130Z,99.90
2019-03-20T22:49:47.015Z,99.90
2019-03-20T22:52:31.686Z,99.90
2019-03-20T22:55:27.495Z,99.90
2019-03-20T22:58:20.349Z,99.90
2019-03-20T23:00:53.845Z,99.90
2019-03-20T23:03:35.385Z,99.90
2019-03-20T23:06:06.414Z,99.90
2019-03-20T23:08:36.048Z,99.90
2019-03-20T23:11:05.679Z,99.90
2019-03-20T23:13:41.439Z,99.90
2019-03-20T23:16:09.889Z,99.90
2019-03-20T23:18:39.604Z,99.90
2019-03-20T23:21:09.388Z,99.90
2019-03-20T23:23:39.764Z,99.90
2019-03-20T23:26:09.561Z,99.90
2019-03-20T23:28:40.219Z,99.90
2019-03-20T23:31:09.917Z,99.90
2019-03-20T23:33:39.623Z,99.90
2019-03-20T23:36:09.278Z,99.90
2019-03-20T23:38:38.977Z,99.90
2019-03-20T23:41:08.845Z,99.90
2019-03-20T23:43:38.658Z,99.90
2019-03-20T23:46:08.449Z,99.90
2019-03-20T23:48:43.744Z,99.90
2019-03-20T23:51:19.128Z,99.90
2019-03-20T23:53:50.956Z,99.90
2019-03-20T23:56:21.146Z,99.90
2019-03-20T23:58:50.837Z,99.90
